sensor_id;sensor_type;location;lat;lon;timestamp;P1;durP1;ratioP1;P2;durP2;ratioP2
34353;SDS011;20618;0.000;0.000;2023-05-10T00:00:56;9.18;;;3.42;;
34353;SDS011;20618;0.000;0.000;2023-05-10T00:03:23;9.60;;;2.90;;
34353;SDS011;20618;0.000;0.000;2023-05-10T00:05:49;10.70;;;3.20;;
34353;SDS011;20618;0.000;0.000;2023-05-10T00:08:15;7.40;;;2.90;;
34353;SDS011;20618;0.000;0.000;2023-05-10T00:10:41;8.10;;;3.00;;
34353;SDS011;20618;0.000;0.000;2023-05-10T00:13:07;8.20;;;2.90;;
34353;SDS011;20618;0.000;0.000;2023-05-10T00:15:34;8.43;;;3.00;;
34353;SDS011;20618;0.000;0.000;2023-05-10T00:18:00;5.85;;;2.60;;
34353;SDS011;20618;0.000;0.000;2023-05-10T00:20:26;6.82;;;2.97;;
34353;SDS011;20618;0.000;0.000;2023-05-10T00:22:52;8.23;;;2.83;;
34353;SDS011;20618;0.000;0.000;2023-05-10T00:25:19;9.90;;;3.25;;
34353;SDS011;20618;0.000;0.000;2023-05-10T00:27:46;7.95;;;3.30;;
34353;SDS011;20618;0.000;0.000;2023-05-10T00:30:13;7.05;;;2.97;;
34353;SDS011;20618;0.000;0.000;2023-05-10T00:32:40;8.13;;;2.40;;
34353;SDS011;20618;0.000;0.000;2023-05-10T00:35:06;7.38;;;2.58;;
34353;SDS011;20618;0.000;0.000;2023-05-10T00:37:32;8.10;;;2.63;;
34353;SDS011;20618;0.000;0.000;2023-05-10T00:39:58;8.02;;;3.00;;
34353;SDS011;20618;0.000;0.000;2023-05-10T00:42:24;8.77;;;3.03;;
34353;SDS011;20618;0.000;0.000;2023-05-10T00:44:50;6.05;;;2.78;;
34353;SDS011;20618;0.000;0.000;2023-05-10T00:47:17;9.55;;;3.10;;
34353;SDS011;20618;0.000;0.000;2023-05-10T00:49:43;6.72;;;2.60;;
34353;SDS011;20618;0.000;0.000;2023-05-10T00:52:09;7.00;;;2.55;;
34353;SDS011;20618;0.000;0.000;2023-05-10T00:54:36;8.45;;;3.20;;
34353;SDS011;20618;0.000;0.000;2023-05-10T00:57:02;7.18;;;2.88;;
34353;SDS011;20618;0.000;0.000;2023-05-10T00:59:28;8.75;;;2.67;;
34353;SDS011;20618;0.000;0.000;2023-05-10T01:01:55;5.68;;;2.90;;
34353;SDS011;20618;0.000;0.000;2023-05-10T01:04:21;7.45;;;2.85;;
34353;SDS011;20618;0.000;0.000;2023-05-10T01:06:51;7.85;;;2.92;;
34353;SDS011;20618;0.000;0.000;2023-05-10T01:09:18;6.50;;;2.85;;
34353;SDS011;20618;0.000;0.000;2023-05-10T01:11:44;5.80;;;2.72;;
34353;SDS011;20618;0.000;0.000;2023-05-10T01:14:10;5.07;;;2.53;;
34353;SDS011;20618;0.000;0.000;2023-05-10T01:16:37;5.75;;;2.60;;
34353;SDS011;20618;0.000;0.000;2023-05-10T01:19:12;8.30;;;2.63;;
34353;SDS011;20618;0.000;0.000;2023-05-10T01:21:49;7.93;;;2.58;;
34353;SDS011;20618;0.000;0.000;2023-05-10T01:30:01;7.82;;;2.78;;
34353;SDS011;20618;0.000;0.000;2023-05-10T01:35:10;7.55;;;3.25;;
34353;SDS011;20618;0.000;0.000;2023-05-10T01:37:52;6.93;;;3.25;;
34353;SDS011;20618;0.000;0.000;2023-05-10T01:40:35;9.52;;;2.97;;
34353;SDS011;20618;0.000;0.000;2023-05-10T01:43:04;8.20;;;2.80;;
34353;SDS011;20618;0.000;0.000;2023-05-10T01:45:41;6.35;;;2.83;;
34353;SDS011;20618;0.000;0.000;2023-05-10T01:48:13;7.07;;;2.85;;
34353;SDS011;20618;0.000;0.000;2023-05-10T01:50:43;6.25;;;2.92;;
34353;SDS011;20618;0.000;0.000;2023-05-10T01:53:09;5.55;;;2.72;;
34353;SDS011;20618;0.000;0.000;2023-05-10T01:55:39;6.93;;;2.63;;
34353;SDS011;20618;0.000;0.000;2023-05-10T01:58:09;7.95;;;3.08;;
34353;SDS011;20618;0.000;0.000;2023-05-10T02:00:35;6.80;;;2.75;;
34353;SDS011;20618;0.000;0.000;2023-05-10T02:03:06;7.22;;;2.75;;
34353;SDS011;20618;0.000;0.000;2023-05-10T02:05:33;5.38;;;2.72;;
34353;SDS011;20618;0.000;0.000;2023-05-10T02:08:00;6.15;;;2.88;;
34353;SDS011;20618;0.000;0.000;2023-05-10T02:10:27;5.15;;;2.42;;
34353;SDS011;20618;0.000;0.000;2023-05-10T02:12:54;6.32;;;2.80;;
34353;SDS011;20618;0.000;0.000;2023-05-10T02:15:22;6.13;;;2.80;;
34353;SDS011;20618;0.000;0.000;2023-05-10T02:17:49;6.53;;;2.78;;
34353;SDS011;20618;0.000;0.000;2023-05-10T02:20:16;7.03;;;2.97;;
34353;SDS011;20618;0.000;0.000;2023-05-10T02:22:44;6.47;;;2.38;;
34353;SDS011;20618;0.000;0.000;2023-05-10T02:25:11;4.85;;;2.53;;
34353;SDS011;20618;0.000;0.000;2023-05-10T02:27:39;5.53;;;2.50;;
34353;SDS011;20618;0.000;0.000;2023-05-10T02:30:07;7.05;;;2.70;;
34353;SDS011;20618;0.000;0.000;2023-05-10T02:32:34;6.90;;;2.55;;
34353;SDS011;20618;0.000;0.000;2023-05-10T02:35:01;6.90;;;2.83;;
34353;SDS011;20618;0.000;0.000;2023-05-10T02:37:28;5.25;;;2.65;;
34353;SDS011;20618;0.000;0.000;2023-05-10T02:39:54;4.28;;;2.35;;
34353;SDS011;20618;0.000;0.000;2023-05-10T02:42:25;6.50;;;3.03;;
34353;SDS011;20618;0.000;0.000;2023-05-10T02:44:53;7.80;;;2.88;;
34353;SDS011;20618;0.000;0.000;2023-05-10T02:47:20;7.15;;;3.00;;
34353;SDS011;20618;0.000;0.000;2023-05-10T02:49:46;4.75;;;2.60;;
34353;SDS011;20618;0.000;0.000;2023-05-10T02:52:13;5.65;;;2.53;;
34353;SDS011;20618;0.000;0.000;2023-05-10T02:54:45;7.90;;;2.83;;
34353;SDS011;20618;0.000;0.000;2023-05-10T02:57:14;6.43;;;2.90;;
34353;SDS011;20618;0.000;0.000;2023-05-10T02:59:44;7.13;;;2.50;;
34353;SDS011;20618;0.000;0.000;2023-05-10T03:02:14;5.07;;;2.75;;
34353;SDS011;20618;0.000;0.000;2023-05-10T03:04:40;7.70;;;2.55;;
34353;SDS011;20618;0.000;0.000;2023-05-10T03:07:07;8.40;;;2.50;;
34353;SDS011;20618;0.000;0.000;2023-05-10T03:09:33;6.60;;;2.83;;
34353;SDS011;20618;0.000;0.000;2023-05-10T03:12:04;8.63;;;2.97;;
34353;SDS011;20618;0.000;0.000;2023-05-10T03:14:51;5.60;;;2.47;;
34353;SDS011;20618;0.000;0.000;2023-05-10T03:17:23;6.53;;;2.97;;
34353;SDS011;20618;0.000;0.000;2023-05-10T03:19:53;6.15;;;2.85;;
34353;SDS011;20618;0.000;0.000;2023-05-10T03:22:25;8.07;;;2.80;;
34353;SDS011;20618;0.000;0.000;2023-05-10T03:24:55;5.97;;;2.53;;
34353;SDS011;20618;0.000;0.000;2023-05-10T03:27:25;6.25;;;3.30;;
34353;SDS011;20618;0.000;0.000;2023-05-10T03:29:52;5.93;;;3.22;;
34353;SDS011;20618;0.000;0.000;2023-05-10T03:32:19;8.52;;;3.70;;
34353;SDS011;20618;0.000;0.000;2023-05-10T03:34:45;6.50;;;3.20;;
34353;SDS011;20618;0.000;0.000;2023-05-10T03:37:11;5.90;;;2.88;;
34353;SDS011;20618;0.000;0.000;2023-05-10T03:39:37;5.63;;;2.90;;
34353;SDS011;20618;0.000;0.000;2023-05-10T03:42:04;6.75;;;3.97;;
34353;SDS011;20618;0.000;0.000;2023-05-10T03:44:30;6.45;;;3.60;;
34353;SDS011;20618;0.000;0.000;2023-05-10T03:46:58;6.72;;;3.55;;
34353;SDS011;20618;0.000;0.000;2023-05-10T03:49:24;8.27;;;3.95;;
34353;SDS011;20618;0.000;0.000;2023-05-10T03:51:50;6.25;;;3.25;;
34353;SDS011;20618;0.000;0.000;2023-05-10T03:54:16;5.78;;;3.63;;
34353;SDS011;20618;0.000;0.000;2023-05-10T03:56:43;10.75;;;4.47;;
34353;SDS011;20618;0.000;0.000;2023-05-10T03:59:09;8.18;;;4.03;;
34353;SDS011;20618;0.000;0.000;2023-05-10T04:01:35;6.47;;;3.42;;
34353;SDS011;20618;0.000;0.000;2023-05-10T04:04:01;6.75;;;4.07;;
34353;SDS011;20618;0.000;0.000;2023-05-10T04:06:27;8.52;;;3.67;;
34353;SDS011;20618;0.000;0.000;2023-05-10T04:08:54;7.90;;;3.60;;
34353;SDS011;20618;0.000;0.000;2023-05-10T04:11:25;8.63;;;4.38;;
34353;SDS011;20618;0.000;0.000;2023-05-10T04:13:53;8.65;;;4.57;;
34353;SDS011;20618;0.000;0.000;2023-05-10T04:16:20;7.38;;;3.38;;
34353;SDS011;20618;0.000;0.000;2023-05-10T04:18:46;8.90;;;4.03;;
34353;SDS011;20618;0.000;0.000;2023-05-10T04:21:13;7.65;;;4.63;;
34353;SDS011;20618;0.000;0.000;2023-05-10T04:23:39;8.98;;;4.13;;
34353;SDS011;20618;0.000;0.000;2023-05-10T04:26:07;6.20;;;3.78;;
34353;SDS011;20618;0.000;0.000;2023-05-10T04:28:33;8.93;;;4.63;;
34353;SDS011;20618;0.000;0.000;2023-05-10T04:31:03;7.07;;;3.95;;
34353;SDS011;20618;0.000;0.000;2023-05-10T04:33:30;7.43;;;4.00;;
34353;SDS011;20618;0.000;0.000;2023-05-10T04:35:56;8.05;;;4.18;;
34353;SDS011;20618;0.000;0.000;2023-05-10T04:38:22;7.57;;;3.72;;
34353;SDS011;20618;0.000;0.000;2023-05-10T04:40:48;8.52;;;3.85;;
34353;SDS011;20618;0.000;0.000;2023-05-10T04:43:14;6.47;;;3.58;;
34353;SDS011;20618;0.000;0.000;2023-05-10T04:45:41;8.88;;;3.95;;
34353;SDS011;20618;0.000;0.000;2023-05-10T04:48:07;5.95;;;3.70;;
34353;SDS011;20618;0.000;0.000;2023-05-10T04:50:33;5.85;;;3.78;;
34353;SDS011;20618;0.000;0.000;2023-05-10T04:52:59;5.57;;;3.53;;
34353;SDS011;20618;0.000;0.000;2023-05-10T04:55:25;9.43;;;4.45;;
34353;SDS011;20618;0.000;0.000;2023-05-10T04:57:52;6.88;;;3.90;;
34353;SDS011;20618;0.000;0.000;2023-05-10T05:00:21;5.17;;;3.33;;
34353;SDS011;20618;0.000;0.000;2023-05-10T05:02:48;8.00;;;4.35;;
34353;SDS011;20618;0.000;0.000;2023-05-10T05:05:14;9.13;;;4.38;;
34353;SDS011;20618;0.000;0.000;2023-05-10T05:07:40;7.03;;;3.70;;
34353;SDS011;20618;0.000;0.000;2023-05-10T05:10:06;6.10;;;3.80;;
34353;SDS011;20618;0.000;0.000;2023-05-10T05:12:33;6.95;;;4.40;;
34353;SDS011;20618;0.000;0.000;2023-05-10T05:15:00;7.43;;;3.97;;
34353;SDS011;20618;0.000;0.000;2023-05-10T05:17:26;6.30;;;4.05;;
34353;SDS011;20618;0.000;0.000;2023-05-10T05:19:52;6.97;;;4.07;;
34353;SDS011;20618;0.000;0.000;2023-05-10T05:22:19;7.70;;;4.05;;
34353;SDS011;20618;0.000;0.000;2023-05-10T05:24:51;6.85;;;4.53;;
34353;SDS011;20618;0.000;0.000;2023-05-10T05:27:18;7.28;;;3.90;;
34353;SDS011;20618;0.000;0.000;2023-05-10T05:29:46;7.00;;;4.15;;
34353;SDS011;20618;0.000;0.000;2023-05-10T05:32:12;7.25;;;4.38;;
34353;SDS011;20618;0.000;0.000;2023-05-10T05:34:38;6.40;;;3.30;;
34353;SDS011;20618;0.000;0.000;2023-05-10T05:37:04;5.45;;;3.10;;
34353;SDS011;20618;0.000;0.000;2023-05-10T05:39:30;6.78;;;3.25;;
34353;SDS011;20618;0.000;0.000;2023-05-10T05:41:57;6.80;;;3.13;;
34353;SDS011;20618;0.000;0.000;2023-05-10T05:44:23;6.07;;;3.50;;
34353;SDS011;20618;0.000;0.000;2023-05-10T05:46:51;6.65;;;3.17;;
34353;SDS011;20618;0.000;0.000;2023-05-10T05:49:18;5.75;;;3.30;;
34353;SDS011;20618;0.000;0.000;2023-05-10T05:51:44;6.25;;;3.35;;
34353;SDS011;20618;0.000;0.000;2023-05-10T05:54:10;5.28;;;3.38;;
34353;SDS011;20618;0.000;0.000;2023-05-10T05:56:36;6.95;;;3.40;;
34353;SDS011;20618;0.000;0.000;2023-05-10T05:59:03;7.03;;;3.13;;
34353;SDS011;20618;0.000;0.000;2023-05-10T06:01:29;6.22;;;3.40;;
34353;SDS011;20618;0.000;0.000;2023-05-10T06:03:55;6.30;;;3.58;;
34353;SDS011;20618;0.000;0.000;2023-05-10T06:06:22;6.30;;;3.63;;
34353;SDS011;20618;0.000;0.000;2023-05-10T06:08:48;6.90;;;3.95;;
34353;SDS011;20618;0.000;0.000;2023-05-10T06:11:14;5.82;;;3.80;;
34353;SDS011;20618;0.000;0.000;2023-05-10T06:13:41;5.60;;;3.22;;
34353;SDS011;20618;0.000;0.000;2023-05-10T06:16:07;8.20;;;3.95;;
34353;SDS011;20618;0.000;0.000;2023-05-10T06:18:34;5.53;;;3.75;;
34353;SDS011;20618;0.000;0.000;2023-05-10T06:21:00;8.88;;;3.95;;
34353;SDS011;20618;0.000;0.000;2023-05-10T06:23:30;6.78;;;3.63;;
34353;SDS011;20618;0.000;0.000;2023-05-10T06:25:56;4.70;;;3.00;;
34353;SDS011;20618;0.000;0.000;2023-05-10T06:28:22;6.30;;;3.15;;
34353;SDS011;20618;0.000;0.000;2023-05-10T06:30:48;6.20;;;3.55;;
34353;SDS011;20618;0.000;0.000;2023-05-10T06:33:14;5.38;;;3.08;;
34353;SDS011;20618;0.000;0.000;2023-05-10T06:35:41;6.85;;;4.03;;
34353;SDS011;20618;0.000;0.000;2023-05-10T06:38:07;8.48;;;3.28;;
34353;SDS011;20618;0.000;0.000;2023-05-10T06:40:33;6.55;;;3.15;;
34353;SDS011;20618;0.000;0.000;2023-05-10T06:43:01;7.00;;;3.35;;
34353;SDS011;20618;0.000;0.000;2023-05-10T06:45:27;7.72;;;2.97;;
34353;SDS011;20618;0.000;0.000;2023-05-10T06:47:53;7.60;;;3.30;;
34353;SDS011;20618;0.000;0.000;2023-05-10T06:50:19;6.15;;;3.50;;
34353;SDS011;20618;0.000;0.000;2023-05-10T06:52:45;8.10;;;3.53;;
34353;SDS011;20618;0.000;0.000;2023-05-10T06:55:11;6.90;;;3.63;;
34353;SDS011;20618;0.000;0.000;2023-05-10T06:57:37;9.65;;;3.33;;
34353;SDS011;20618;0.000;0.000;2023-05-10T07:00:04;7.65;;;3.78;;
34353;SDS011;20618;0.000;0.000;2023-05-10T07:02:32;8.38;;;3.30;;
34353;SDS011;20618;0.000;0.000;2023-05-10T07:04:58;6.30;;;3.00;;
34353;SDS011;20618;0.000;0.000;2023-05-10T07:07:24;9.23;;;3.42;;
34353;SDS011;20618;0.000;0.000;2023-05-10T07:09:51;9.90;;;3.88;;
34353;SDS011;20618;0.000;0.000;2023-05-10T07:12:17;10.38;;;3.95;;
34353;SDS011;20618;0.000;0.000;2023-05-10T07:14:43;7.50;;;3.65;;
34353;SDS011;20618;0.000;0.000;2023-05-10T07:17:10;9.98;;;3.88;;
34353;SDS011;20618;0.000;0.000;2023-05-10T07:19:36;9.30;;;3.72;;
34353;SDS011;20618;0.000;0.000;2023-05-10T07:22:02;9.15;;;3.60;;
34353;SDS011;20618;0.000;0.000;2023-05-10T07:24:29;8.27;;;3.42;;
34353;SDS011;20618;0.000;0.000;2023-05-10T07:26:56;9.02;;;4.05;;
34353;SDS011;20618;0.000;0.000;2023-05-10T07:29:22;9.00;;;4.10;;
34353;SDS011;20618;0.000;0.000;2023-05-10T07:31:48;8.73;;;3.33;;
34353;SDS011;20618;0.000;0.000;2023-05-10T07:34:15;9.95;;;3.78;;
34353;SDS011;20618;0.000;0.000;2023-05-10T07:36:41;10.43;;;4.13;;
34353;SDS011;20618;0.000;0.000;2023-05-10T07:39:07;14.15;;;3.75;;
34353;SDS011;20618;0.000;0.000;2023-05-10T07:41:34;11.13;;;3.95;;
34353;SDS011;20618;0.000;0.000;2023-05-10T07:44:02;8.52;;;4.03;;
34353;SDS011;20618;0.000;0.000;2023-05-10T07:46:29;11.63;;;4.00;;
34353;SDS011;20618;0.000;0.000;2023-05-10T07:48:55;9.43;;;3.90;;
34353;SDS011;20618;0.000;0.000;2023-05-10T07:51:22;11.52;;;4.45;;
34353;SDS011;20618;0.000;0.000;2023-05-10T07:53:48;10.88;;;4.18;;
34353;SDS011;20618;0.000;0.000;2023-05-10T07:56:24;13.43;;;4.10;;
34353;SDS011;20618;0.000;0.000;2023-05-10T07:58:52;8.50;;;4.43;;
34353;SDS011;20618;0.000;0.000;2023-05-10T08:01:19;12.23;;;3.88;;
34353;SDS011;20618;0.000;0.000;2023-05-10T08:03:45;14.68;;;4.38;;
34353;SDS011;20618;0.000;0.000;2023-05-10T08:06:11;12.25;;;4.47;;
34353;SDS011;20618;0.000;0.000;2023-05-10T08:08:37;10.98;;;3.88;;
34353;SDS011;20618;0.000;0.000;2023-05-10T08:11:04;9.82;;;4.45;;
34353;SDS011;20618;0.000;0.000;2023-05-10T08:13:30;14.43;;;4.45;;
34353;SDS011;20618;0.000;0.000;2023-05-10T08:15:56;11.30;;;4.18;;
34353;SDS011;20618;0.000;0.000;2023-05-10T08:18:22;13.02;;;3.58;;
34353;SDS011;20618;0.000;0.000;2023-05-10T08:20:48;11.18;;;4.65;;
34353;SDS011;20618;0.000;0.000;2023-05-10T08:23:14;13.23;;;4.30;;
34353;SDS011;20618;0.000;0.000;2023-05-10T08:25:41;9.98;;;3.95;;
34353;SDS011;20618;0.000;0.000;2023-05-10T08:28:07;15.38;;;4.53;;
34353;SDS011;20618;0.000;0.000;2023-05-10T08:30:33;18.88;;;4.20;;
34353;SDS011;20618;0.000;0.000;2023-05-10T08:32:59;13.70;;;4.07;;
34353;SDS011;20618;0.000;0.000;2023-05-10T08:35:25;22.10;;;4.47;;
34353;SDS011;20618;0.000;0.000;2023-05-10T08:37:51;19.65;;;5.10;;
34353;SDS011;20618;0.000;0.000;2023-05-10T08:40:18;15.68;;;4.32;;
34353;SDS011;20618;0.000;0.000;2023-05-10T08:42:51;21.08;;;4.32;;
34353;SDS011;20618;0.000;0.000;2023-05-10T08:47:44;14.90;;;4.28;;
34353;SDS011;20618;0.000;0.000;2023-05-10T08:50:11;17.55;;;4.72;;
34353;SDS011;20618;0.000;0.000;2023-05-10T08:52:37;21.10;;;5.18;;
34353;SDS011;20618;0.000;0.000;2023-05-10T08:55:05;18.50;;;4.78;;
34353;SDS011;20618;0.000;0.000;2023-05-10T08:57:31;20.80;;;4.88;;
34353;SDS011;20618;0.000;0.000;2023-05-10T08:59:57;28.70;;;5.18;;
34353;SDS011;20618;0.000;0.000;2023-05-10T09:02:24;15.07;;;4.93;;
34353;SDS011;20618;0.000;0.000;2023-05-10T09:04:51;19.88;;;5.68;;
34353;SDS011;20618;0.000;0.000;2023-05-10T09:07:17;19.33;;;4.90;;
34353;SDS011;20618;0.000;0.000;2023-05-10T09:09:43;18.75;;;4.57;;
34353;SDS011;20618;0.000;0.000;2023-05-10T09:12:09;25.67;;;4.60;;
34353;SDS011;20618;0.000;0.000;2023-05-10T09:14:36;15.85;;;4.57;;
34353;SDS011;20618;0.000;0.000;2023-05-10T09:17:04;24.90;;;5.10;;
34353;SDS011;20618;0.000;0.000;2023-05-10T09:19:30;22.52;;;4.90;;
34353;SDS011;20618;0.000;0.000;2023-05-10T09:21:56;19.95;;;5.45;;
34353;SDS011;20618;0.000;0.000;2023-05-10T09:24:25;26.67;;;5.28;;
34353;SDS011;20618;0.000;0.000;2023-05-10T09:26:52;19.88;;;5.03;;
34353;SDS011;20618;0.000;0.000;2023-05-10T09:29:18;32.90;;;5.75;;
34353;SDS011;20618;0.000;0.000;2023-05-10T09:31:48;16.13;;;5.10;;
34353;SDS011;20618;0.000;0.000;2023-05-10T09:34:20;26.63;;;6.47;;
34353;SDS011;20618;0.000;0.000;2023-05-10T09:36:53;26.55;;;5.20;;
34353;SDS011;20618;0.000;0.000;2023-05-10T09:39:20;27.65;;;6.15;;
34353;SDS011;20618;0.000;0.000;2023-05-10T09:41:46;17.48;;;4.85;;
34353;SDS011;20618;0.000;0.000;2023-05-10T09:44:16;20.90;;;4.78;;
34353;SDS011;20618;0.000;0.000;2023-05-10T09:46:48;24.85;;;5.05;;
34353;SDS011;20618;0.000;0.000;2023-05-10T09:49:14;29.25;;;5.43;;
34353;SDS011;20618;0.000;0.000;2023-05-10T09:51:41;25.60;;;5.15;;
34353;SDS011;20618;0.000;0.000;2023-05-10T09:54:11;20.60;;;4.88;;
34353;SDS011;20618;0.000;0.000;2023-05-10T09:56:38;28.60;;;4.82;;
34353;SDS011;20618;0.000;0.000;2023-05-10T09:59:06;23.67;;;5.80;;
34353;SDS011;20618;0.000;0.000;2023-05-10T10:01:32;25.27;;;5.82;;
34353;SDS011;20618;0.000;0.000;2023-05-10T10:04:00;25.48;;;5.05;;
34353;SDS011;20618;0.000;0.000;2023-05-10T10:06:28;25.05;;;5.30;;
34353;SDS011;20618;0.000;0.000;2023-05-10T10:08:55;32.67;;;5.20;;
34353;SDS011;20618;0.000;0.000;2023-05-10T10:11:21;23.65;;;4.97;;
34353;SDS011;20618;0.000;0.000;2023-05-10T10:13:49;22.15;;;5.20;;
34353;SDS011;20618;0.000;0.000;2023-05-10T10:16:15;20.65;;;5.20;;
34353;SDS011;20618;0.000;0.000;2023-05-10T10:18:42;17.02;;;5.00;;
34353;SDS011;20618;0.000;0.000;2023-05-10T10:21:08;24.67;;;5.10;;
34353;SDS011;20618;0.000;0.000;2023-05-10T10:23:34;20.15;;;5.18;;
34353;SDS011;20618;0.000;0.000;2023-05-10T10:26:02;27.50;;;5.00;;
34353;SDS011;20618;0.000;0.000;2023-05-10T10:28:50;25.08;;;5.50;;
34353;SDS011;20618;0.000;0.000;2023-05-10T10:31:26;25.27;;;6.00;;
34353;SDS011;20618;0.000;0.000;2023-05-10T10:34:00;28.35;;;5.88;;
34353;SDS011;20618;0.000;0.000;2023-05-10T10:36:27;19.50;;;5.28;;
34353;SDS011;20618;0.000;0.000;2023-05-10T10:43:50;24.95;;;5.95;;
34353;SDS011;20618;0.000;0.000;2023-05-10T10:46:53;28.88;;;5.88;;
34353;SDS011;20618;0.000;0.000;2023-05-10T10:49:22;24.13;;;5.32;;
34353;SDS011;20618;0.000;0.000;2023-05-10T10:54:33;27.25;;;5.32;;
34353;SDS011;20618;0.000;0.000;2023-05-10T10:57:10;23.63;;;4.93;;
34353;SDS011;20618;0.000;0.000;2023-05-10T10:59:41;24.45;;;4.68;;
34353;SDS011;20618;0.000;0.000;2023-05-10T11:02:08;22.48;;;5.18;;
34353;SDS011;20618;0.000;0.000;2023-05-10T11:04:43;23.08;;;5.20;;
34353;SDS011;20618;0.000;0.000;2023-05-10T11:07:17;28.30;;;4.70;;
34353;SDS011;20618;0.000;0.000;2023-05-10T11:09:44;22.23;;;4.78;;
34353;SDS011;20618;0.000;0.000;2023-05-10T11:12:10;29.15;;;5.10;;
34353;SDS011;20618;0.000;0.000;2023-05-10T11:14:36;23.42;;;4.88;;
34353;SDS011;20618;0.000;0.000;2023-05-10T11:17:02;18.67;;;5.05;;
34353;SDS011;20618;0.000;0.000;2023-05-10T11:20:06;23.33;;;5.22;;
34353;SDS011;20618;0.000;0.000;2023-05-10T11:22:50;21.15;;;5.07;;
34353;SDS011;20618;0.000;0.000;2023-05-10T11:25:16;19.65;;;5.00;;
34353;SDS011;20618;0.000;0.000;2023-05-10T11:27:43;15.45;;;4.63;;
34353;SDS011;20618;0.000;0.000;2023-05-10T11:30:10;28.33;;;5.25;;
34353;SDS011;20618;0.000;0.000;2023-05-10T11:32:40;22.25;;;5.10;;
34353;SDS011;20618;0.000;0.000;2023-05-10T11:35:08;24.08;;;5.65;;
34353;SDS011;20618;0.000;0.000;2023-05-10T11:37:35;21.92;;;4.15;;
34353;SDS011;20618;0.000;0.000;2023-05-10T11:40:01;26.02;;;6.63;;
34353;SDS011;20618;0.000;0.000;2023-05-10T11:42:28;24.70;;;5.97;;
34353;SDS011;20618;0.000;0.000;2023-05-10T11:44:55;27.00;;;5.18;;
34353;SDS011;20618;0.000;0.000;2023-05-10T11:47:22;23.98;;;5.15;;
34353;SDS011;20618;0.000;0.000;2023-05-10T11:49:48;21.55;;;4.90;;
34353;SDS011;20618;0.000;0.000;2023-05-10T11:52:15;27.40;;;5.22;;
34353;SDS011;20618;0.000;0.000;2023-05-10T11:54:45;31.92;;;5.57;;
34353;SDS011;20618;0.000;0.000;2023-05-10T11:57:11;24.35;;;5.82;;
34353;SDS011;20618;0.000;0.000;2023-05-10T11:59:38;22.80;;;4.97;;
34353;SDS011;20618;0.000;0.000;2023-05-10T12:02:04;26.00;;;4.95;;
34353;SDS011;20618;0.000;0.000;2023-05-10T12:04:30;29.05;;;5.82;;
34353;SDS011;20618;0.000;0.000;2023-05-10T12:06:57;26.70;;;4.88;;
34353;SDS011;20618;0.000;0.000;2023-05-10T12:09:23;19.05;;;5.35;;
34353;SDS011;20618;0.000;0.000;2023-05-10T12:11:49;22.60;;;4.80;;
34353;SDS011;20618;0.000;0.000;2023-05-10T12:14:24;27.33;;;5.18;;
34353;SDS011;20618;0.000;0.000;2023-05-10T12:16:50;23.77;;;5.32;;
34353;SDS011;20618;0.000;0.000;2023-05-10T12:19:20;18.58;;;4.50;;
34353;SDS011;20618;0.000;0.000;2023-05-10T12:21:46;22.00;;;4.82;;
34353;SDS011;20618;0.000;0.000;2023-05-10T12:24:13;22.58;;;5.22;;
34353;SDS011;20618;0.000;0.000;2023-05-10T12:26:42;24.10;;;4.23;;
34353;SDS011;20618;0.000;0.000;2023-05-10T12:29:15;22.45;;;5.28;;
34353;SDS011;20618;0.000;0.000;2023-05-10T12:31:54;20.60;;;4.53;;
34353;SDS011;20618;0.000;0.000;2023-05-10T12:34:24;25.15;;;5.35;;
34353;SDS011;20618;0.000;0.000;2023-05-10T12:36:53;18.80;;;4.60;;
34353;SDS011;20618;0.000;0.000;2023-05-10T12:39:20;21.73;;;4.78;;
34353;SDS011;20618;0.000;0.000;2023-05-10T12:41:46;23.58;;;5.03;;
34353;SDS011;20618;0.000;0.000;2023-05-10T12:44:12;21.40;;;5.03;;
34353;SDS011;20618;0.000;0.000;2023-05-10T12:46:38;26.65;;;5.13;;
34353;SDS011;20618;0.000;0.000;2023-05-10T12:49:05;18.98;;;5.10;;
34353;SDS011;20618;0.000;0.000;2023-05-10T12:51:31;22.83;;;4.82;;
34353;SDS011;20618;0.000;0.000;2023-05-10T12:53:57;18.08;;;5.28;;
34353;SDS011;20618;0.000;0.000;2023-05-10T12:56:23;28.48;;;5.47;;
34353;SDS011;20618;0.000;0.000;2023-05-10T12:58:49;32.13;;;5.45;;
34353;SDS011;20618;0.000;0.000;2023-05-10T13:01:16;18.88;;;5.22;;
34353;SDS011;20618;0.000;0.000;2023-05-10T13:03:42;27.35;;;5.82;;
34353;SDS011;20618;0.000;0.000;2023-05-10T13:06:08;24.98;;;4.70;;
34353;SDS011;20618;0.000;0.000;2023-05-10T13:08:35;31.13;;;5.80;;
34353;SDS011;20618;0.000;0.000;2023-05-10T13:11:01;30.67;;;5.63;;
34353;SDS011;20618;0.000;0.000;2023-05-10T13:13:28;22.83;;;4.85;;
34353;SDS011;20618;0.000;0.000;2023-05-10T13:15:54;34.28;;;5.90;;
34353;SDS011;20618;0.000;0.000;2023-05-10T13:18:20;25.70;;;5.28;;
34353;SDS011;20618;0.000;0.000;2023-05-10T13:20:46;26.67;;;5.88;;
34353;SDS011;20618;0.000;0.000;2023-05-10T13:23:12;24.70;;;4.93;;
34353;SDS011;20618;0.000;0.000;2023-05-10T13:25:38;27.67;;;4.88;;
34353;SDS011;20618;0.000;0.000;2023-05-10T13:28:05;25.40;;;5.28;;
34353;SDS011;20618;0.000;0.000;2023-05-10T13:30:31;28.38;;;5.05;;
34353;SDS011;20618;0.000;0.000;2023-05-10T13:32:57;20.40;;;5.00;;
34353;SDS011;20618;0.000;0.000;2023-05-10T13:35:23;22.17;;;5.00;;
34353;SDS011;20618;0.000;0.000;2023-05-10T13:37:49;30.35;;;5.60;;
34353;SDS011;20618;0.000;0.000;2023-05-10T13:40:15;31.70;;;5.75;;
34353;SDS011;20618;0.000;0.000;2023-05-10T13:42:42;29.67;;;5.45;;
34353;SDS011;20618;0.000;0.000;2023-05-10T13:45:08;29.48;;;5.30;;
34353;SDS011;20618;0.000;0.000;2023-05-10T13:47:37;28.13;;;5.07;;
34353;SDS011;20618;0.000;0.000;2023-05-10T13:50:03;25.35;;;5.32;;
34353;SDS011;20618;0.000;0.000;2023-05-10T13:52:29;30.42;;;5.28;;
34353;SDS011;20618;0.000;0.000;2023-05-10T13:54:55;22.25;;;4.63;;
34353;SDS011;20618;0.000;0.000;2023-05-10T13:57:22;30.05;;;5.45;;
34353;SDS011;20618;0.000;0.000;2023-05-10T13:59:49;32.90;;;5.35;;
34353;SDS011;20618;0.000;0.000;2023-05-10T14:02:15;30.30;;;5.97;;
34353;SDS011;20618;0.000;0.000;2023-05-10T14:04:41;31.42;;;5.15;;
34353;SDS011;20618;0.000;0.000;2023-05-10T14:07:07;27.83;;;5.80;;
34353;SDS011;20618;0.000;0.000;2023-05-10T14:09:34;36.95;;;6.68;;
34353;SDS011;20618;0.000;0.000;2023-05-10T14:12:00;41.15;;;5.93;;
34353;SDS011;20618;0.000;0.000;2023-05-10T14:14:27;37.28;;;5.60;;
34353;SDS011;20618;0.000;0.000;2023-05-10T14:16:54;42.83;;;6.20;;
34353;SDS011;20618;0.000;0.000;2023-05-10T14:19:20;33.75;;;6.35;;
34353;SDS011;20618;0.000;0.000;2023-05-10T14:21:46;32.97;;;6.20;;
34353;SDS011;20618;0.000;0.000;2023-05-10T14:24:12;34.13;;;5.80;;
34353;SDS011;20618;0.000;0.000;2023-05-10T14:26:39;36.88;;;5.95;;
34353;SDS011;20618;0.000;0.000;2023-05-10T14:29:05;35.58;;;6.07;;
34353;SDS011;20618;0.000;0.000;2023-05-10T14:31:31;34.60;;;5.60;;
34353;SDS011;20618;0.000;0.000;2023-05-10T14:33:57;31.02;;;6.70;;
34353;SDS011;20618;0.000;0.000;2023-05-10T14:36:24;31.95;;;6.53;;
34353;SDS011;20618;0.000;0.000;2023-05-10T14:38:50;41.30;;;7.32;;
34353;SDS011;20618;0.000;0.000;2023-05-10T14:41:17;36.35;;;6.20;;
34353;SDS011;20618;0.000;0.000;2023-05-10T14:43:43;42.17;;;6.25;;
34353;SDS011;20618;0.000;0.000;2023-05-10T14:46:09;41.72;;;6.47;;
34353;SDS011;20618;0.000;0.000;2023-05-10T14:48:35;40.92;;;6.20;;
34353;SDS011;20618;0.000;0.000;2023-05-10T14:51:02;40.97;;;7.05;;
34353;SDS011;20618;0.000;0.000;2023-05-10T14:53:28;31.83;;;6.25;;
34353;SDS011;20618;0.000;0.000;2023-05-10T14:55:54;36.38;;;6.65;;
34353;SDS011;20618;0.000;0.000;2023-05-10T14:58:20;44.20;;;7.03;;
34353;SDS011;20618;0.000;0.000;2023-05-10T15:00:47;42.58;;;7.00;;
34353;SDS011;20618;0.000;0.000;2023-05-10T15:03:13;32.75;;;5.95;;
34353;SDS011;20618;0.000;0.000;2023-05-10T15:05:40;46.03;;;7.53;;
34353;SDS011;20618;0.000;0.000;2023-05-10T15:08:06;31.20;;;5.72;;
34353;SDS011;20618;0.000;0.000;2023-05-10T15:10:32;34.03;;;6.07;;
34353;SDS011;20618;0.000;0.000;2023-05-10T15:12:59;40.28;;;6.30;;
34353;SDS011;20618;0.000;0.000;2023-05-10T15:15:25;37.97;;;5.85;;